createdAt,value
2019-03-13T00:02:29.891Z,51.90
2019-03-13T00:05:18.056Z,52.00
2019-03-13T00:08:06.337Z,51.90
2019-03-13T00:10:54.858Z,51.90
2019-03-13T00:13:42.768Z,51.90
2019-03-13T00:16:30.757Z,51.90
2019-03-13T00:19:18.696Z,52.00
2019-03-13T00:22:07.079Z,52.00
2019-03-13T00:24:56.370Z,52.00
2019-03-13T00:27:25.759Z,52.00
2019-03-13T00:29:54.399Z,51.90
2019-03-13T00:32:42.382Z,51.90
2019-03-13T00:35:30.309Z,51.90
2019-03-13T00:38:19.137Z,52.00
2019-03-13T00:41:07.437Z,52.10
2019-03-13T00:43:55.805Z,52.00
2019-03-13T00:46:24.600Z,52.10
2019-03-13T00:49:13.052Z,52.10
2019-03-13T00:51:54.186Z,52.20
2019-03-13T00:54:36.991Z,52.20
2019-03-13T00:57:17.740Z,52.20
2019-03-13T00:59:58.220Z,52.20
2019-03-13T01:05:25.653Z,52.20
2019-03-13T01:08:13.572Z,52.20
2019-03-13T01:10:42.381Z,52.20
2019-03-13T01:13:30.580Z,52.30
2019-03-13T01:16:19.278Z,52.40
2019-03-13T01:19:07.223Z,52.30
2019-03-13T01:21:55.332Z,52.40
2019-03-13T01:24:43.332Z,52.40
2019-03-13T01:27:31.314Z,52.50
2019-03-13T01:30:19.444Z,52.50
2019-03-13T01:33:10.801Z,52.40
2019-03-13T01:35:59.074Z,52.30
2019-03-13T01:38:47.203Z,52.40
2019-03-13T01:41:35.196Z,52.40
2019-03-13T01:44:23.524Z,52.50
2019-03-13T01:47:12.176Z,52.40
2019-03-13T01:49:41.264Z,52.60
2019-03-13T01:52:22.103Z,52.60
2019-03-13T01:55:02.976Z,52.50
2019-03-13T01:57:33.936Z,52.70
2019-03-13T02:00:21.895Z,52.50
2019-03-13T02:02:50.968Z,52.50
2019-03-13T02:05:38.996Z,52.60
2019-03-13T02:08:07.583Z,52.50
2019-03-13T02:10:55.853Z,52.40
2019-03-13T02:13:24.447Z,52.60
2019-03-13T02:16:15.621Z,52.60
2019-03-13T02:18:44.602Z,52.50
2019-03-13T02:21:32.643Z,52.50
2019-03-13T02:24:20.626Z,52.40
2019-03-13T02:27:23.086Z,52.60
2019-03-13T02:29:58.227Z,52.60
2019-03-13T02:35:34.112Z,52.10
2019-03-13T02:38:22.068Z,52.50
2019-03-13T02:41:10.244Z,52.40
2019-03-13T02:43:38.842Z,52.40
2019-03-13T02:46:07.765Z,52.30
2019-03-13T02:48:36.352Z,52.40
2019-03-13T02:51:17.482Z,52.50
2019-03-13T02:53:58.285Z,52.50
2019-03-13T02:56:27.139Z,52.40
2019-03-13T02:58:56.024Z,52.30
2019-03-13T03:01:43.923Z,52.20
2019-03-13T03:04:32.571Z,52.30
2019-03-13T03:07:01.345Z,52.20
2019-03-13T03:09:30.383Z,52.20
2019-03-13T03:12:18.444Z,52.20
2019-03-13T03:15:08.408Z,52.20
2019-03-13T03:17:56.498Z,52.20
2019-03-13T03:20:44.484Z,52.40
2019-03-13T03:23:32.548Z,52.40
2019-03-13T03:26:20.482Z,52.40
2019-03-13T03:28:49.200Z,52.20
2019-03-13T03:31:17.861Z,52.40
2019-03-13T03:34:05.799Z,52.20
2019-03-13T03:36:53.799Z,52.30
2019-03-13T03:39:22.998Z,52.30
2019-03-13T03:41:51.658Z,52.20
2019-03-13T03:49:55.733Z,51.40
2019-03-13T03:52:24.586Z,52.00
2019-03-13T03:55:12.858Z,52.10
2019-03-13T03:58:00.816Z,52.20
2019-03-13T04:00:48.917Z,52.30
2019-03-13T04:03:37.349Z,52.20
2019-03-13T04:06:06.125Z,52.30
2019-03-13T04:08:54.015Z,52.50
2019-03-13T04:11:41.944Z,52.30
2019-03-13T04:14:29.889Z,52.30
2019-03-13T04:17:18.282Z,52.40
2019-03-13T04:20:06.322Z,52.40
2019-03-13T04:22:34.935Z,52.20
2019-03-13T04:25:42.154Z,52.20
2019-03-13T04:28:30.226Z,52.10
2019-03-13T04:31:18.627Z,52.20
2019-03-13T04:33:47.477Z,52.10
2019-03-13T04:36:35.403Z,52.00
2019-03-13T04:39:23.349Z,52.00
2019-03-13T04:41:53.408Z,52.00
2019-03-13T04:44:22.263Z,52.00
2019-03-13T04:46:52.396Z,52.10
2019-03-13T04:49:20.988Z,52.10
2019-03-13T04:51:49.819Z,52.20
2019-03-13T04:54:18.950Z,52.20
2019-03-13T04:57:06.925Z,52.20
2019-03-13T04:59:35.767Z,52.10
2019-03-13T05:02:04.404Z,51.90
2019-03-13T05:04:33.216Z,51.90
2019-03-13T05:07:21.223Z,51.90
2019-03-13T05:10:09.472Z,51.80
2019-03-13T05:12:38.159Z,51.90
2019-03-13T05:15:06.723Z,52.10
2019-03-13T05:17:54.727Z,52.00
2019-03-13T05:20:23.511Z,52.00
2019-03-13T05:22:52.210Z,52.00
2019-03-13T05:25:40.164Z,51.90
2019-03-13T05:28:08.980Z,52.00
2019-03-13T05:30:37.831Z,51.80
2019-03-13T05:33:06.443Z,51.90
2019-03-13T05:35:54.636Z,51.80
2019-03-13T05:38:42.618Z,51.80
2019-03-13T05:41:11.456Z,51.80
2019-03-13T05:43:59.404Z,51.70
2019-03-13T05:46:28.180Z,51.60
2019-03-13T05:48:57.110Z,51.80
2019-03-13T05:51:25.703Z,51.80
2019-03-13T05:53:54.290Z,51.70
2019-03-13T05:56:22.891Z,51.70
2019-03-13T05:58:51.540Z,51.60
2019-03-13T06:01:20.406Z,51.80
2019-03-13T06:04:08.420Z,51.60
2019-03-13T06:06:56.415Z,51.50
2019-03-13T06:09:25.744Z,51.60
2019-03-13T06:11:54.689Z,51.50
2019-03-13T06:14:42.635Z,51.80
2019-03-13T06:17:14.156Z,51.60
2019-03-13T06:19:47.936Z,51.60
2019-03-13T06:22:16.755Z,51.80
2019-03-13T06:24:45.319Z,51.80
2019-03-13T06:30:11.399Z,51.80
2019-03-13T06:32:59.331Z,51.80
2019-03-13T06:35:28.171Z,51.70
2019-03-13T06:37:56.784Z,51.80
2019-03-13T06:40:25.359Z,51.50
2019-03-13T06:42:54.189Z,51.50
2019-03-13T06:45:42.112Z,51.50
2019-03-13T06:48:10.708Z,51.60
2019-03-13T06:50:39.314Z,51.40
2019-03-13T06:53:07.898Z,51.60
2019-03-13T06:55:36.506Z,51.60
2019-03-13T06:58:33.749Z,51.30
2019-03-13T07:01:19.523Z,51.10
2019-03-13T07:04:07.548Z,51.20
2019-03-13T07:06:55.514Z,51.30
2019-03-13T07:09:51.721Z,51.30
2019-03-13T07:12:39.412Z,51.30
2019-03-13T07:15:46.456Z,51.20
2019-03-13T07:18:34.118Z,50.90
2019-03-13T07:21:56.075Z,50.80
2019-03-13T07:24:46.596Z,50.90
2019-03-13T07:27:34.539Z,51.20
2019-03-13T07:30:14.879Z,50.90
2019-03-13T07:32:49.347Z,50.70
2019-03-13T07:35:37.016Z,50.80
2019-03-13T07:38:44.041Z,50.90
2019-03-13T07:41:18.915Z,51.00
2019-03-13T07:44:06.842Z,50.90
2019-03-13T07:47:09.162Z,51.00
2019-03-13T07:50:22.050Z,50.90
2019-03-13T07:53:29.047Z,50.90
2019-03-13T07:56:17.012Z,51.10
2019-03-13T07:58:56.281Z,51.10
2019-03-13T08:01:46.911Z,50.90
2019-03-13T08:04:37.551Z,50.80
2019-03-13T08:07:44.625Z,50.90
2019-03-13T08:10:34.222Z,50.80
2019-03-13T08:13:41.261Z,50.80
2019-03-13T08:16:48.247Z,50.90
2019-03-13T08:19:36.842Z,50.90
2019-03-13T08:22:24.588Z,50.80
2019-03-13T08:25:12.244Z,50.70
2019-03-13T08:28:00.186Z,50.60
2019-03-13T08:30:39.440Z,50.60
2019-03-13T08:33:27.408Z,50.60
2019-03-13T08:36:05.620Z,50.60
2019-03-13T08:39:12.638Z,50.60
2019-03-13T08:42:00.296Z,50.50
2019-03-13T08:44:47.973Z,50.60
2019-03-13T08:47:25.368Z,50.60
2019-03-13T08:50:32.396Z,50.50
2019-03-13T08:53:20.079Z,50.30
2019-03-13T08:55:58.919Z,50.50
2019-03-13T08:59:05.925Z,50.40
2019-03-13T09:01:53.612Z,50.30
2019-03-13T09:04:57.039Z,50.30
2019-03-13T09:07:47.550Z,50.20
2019-03-13T09:10:23.940Z,50.50
2019-03-13T09:13:11.651Z,50.40
2019-03-13T09:16:19.914Z,50.50
2019-03-13T09:19:17.180Z,50.50
2019-03-13T09:22:05.120Z,50.40
2019-03-13T09:24:46.297Z,50.50
2019-03-13T09:27:53.323Z,50.40
2019-03-13T09:31:00.351Z,50.40
2019-03-13T09:33:35.947Z,50.40
2019-03-13T09:36:18.611Z,50.40
2019-03-13T09:39:06.305Z,51.00
2019-03-13T09:41:53.978Z,50.40
2019-03-13T09:44:48.800Z,50.20
2019-03-13T09:47:55.797Z,50.10
2019-03-13T09:51:02.780Z,50.20
2019-03-13T09:53:50.453Z,50.10
2019-03-13T09:56:38.152Z,50.30
2019-03-13T09:59:26.082Z,50.20
2019-03-13T10:02:33.153Z,50.20
2019-03-13T10:05:40.148Z,50.20
2019-03-13T10:08:47.133Z,50.20
2019-03-13T10:11:34.833Z,50.10
2019-03-13T10:14:22.743Z,49.60
2019-03-13T10:17:11.325Z,49.60
2019-03-13T10:20:18.786Z,49.90
2019-03-13T10:22:56.059Z,50.00
2019-03-13T10:25:50.841Z,50.10
2019-03-13T10:28:28.187Z,50.10
2019-03-13T10:31:35.158Z,49.80
2019-03-13T10:34:11.512Z,49.70
2019-03-13T10:36:50.653Z,49.50
2019-03-13T10:39:38.080Z,49.70
2019-03-13T10:42:25.993Z,49.80
2019-03-13T10:45:13.664Z,50.00
2019-03-13T10:48:06.481Z,50.00
2019-03-13T10:50:54.151Z,50.20
2019-03-13T10:54:01.175Z,50.50
2019-03-13T10:56:48.884Z,50.50
2019-03-13T10:59:29.320Z,50.40
2019-03-13T11:02:05.349Z,50.20
2019-03-13T11:04:53.012Z,50.30
2019-03-13T11:07:41.215Z,50.40
2019-03-13T11:10:48.303Z,50.60
2019-03-13T11:13:32.776Z,50.70
2019-03-13T11:16:39.788Z,50.80
2019-03-13T11:19:34.055Z,50.70
2019-03-13T11:22:41.068Z,50.60
2019-03-13T11:25:48.073Z,50.70
2019-03-13T11:28:55.076Z,50.80
2019-03-13T11:31:31.367Z,50.70
2019-03-13T11:34:05.271Z,50.80
2019-03-13T11:37:12.282Z,50.80
2019-03-13T11:40:19.556Z,50.30
2019-03-13T11:43:07.471Z,50.40
2019-03-13T11:46:14.466Z,50.00
2019-03-13T11:49:02.129Z,50.20
2019-03-13T11:51:49.950Z,50.40
2019-03-13T11:54:24.427Z,50.50
2019-03-13T11:57:24.799Z,50.80
2019-03-13T12:00:12.660Z,50.60
2019-03-13T12:03:00.346Z,50.80
2019-03-13T12:06:07.370Z,50.70
2019-03-13T12:12:19.612Z,50.60
2019-03-13T12:15:07.279Z,50.70
2019-03-13T12:18:09.204Z,50.60
2019-03-13T12:21:16.193Z,50.70
2019-03-13T12:24:23.298Z,50.80
2019-03-13T12:26:58.795Z,50.80
2019-03-13T12:29:56.164Z,50.80
2019-03-13T12:33:03.385Z,50.80
2019-03-13T12:35:51.079Z,50.90
2019-03-13T12:38:58.086Z,51.20
2019-03-13T12:42:05.090Z,51.20
2019-03-13T12:44:53.006Z,51.20
2019-03-13T12:47:40.924Z,51.20
2019-03-13T12:50:29.270Z,51.10
2019-03-13T12:53:36.259Z,51.20
2019-03-13T12:56:23.919Z,51.10
2019-03-13T12:59:11.679Z,51.10
2019-03-13T13:02:18.913Z,51.20
2019-03-13T13:05:06.580Z,51.10
2019-03-13T13:08:13.547Z,51.00
2019-03-13T13:10:59.959Z,50.70
2019-03-13T13:13:47.974Z,50.60
2019-03-13T13:16:35.693Z,50.70
2019-03-13T13:19:04.283Z,50.70
2019-03-13T13:21:52.214Z,51.00
2019-03-13T13:24:21.024Z,50.90
2019-03-13T13:26:50.351Z,50.80
2019-03-13T13:29:20.086Z,50.90
2019-03-13T13:32:08.098Z,50.80
2019-03-13T13:34:55.977Z,50.60
2019-03-13T13:37:44.131Z,50.80
2019-03-13T13:40:32.080Z,50.80
2019-03-13T13:43:20.126Z,50.80
2019-03-13T13:45:53.308Z,51.10
2019-03-13T13:48:21.932Z,51.30
2019-03-13T13:50:50.803Z,51.30
2019-03-13T13:53:38.736Z,51.30
2019-03-13T13:56:07.335Z,51.70
2019-03-13T13:58:48.399Z,51.60
2019-03-13T14:01:29.396Z,54.50
2019-03-13T14:03:58.001Z,53.90
2019-03-13T14:06:46.023Z,52.10
2019-03-13T14:09:34.180Z,51.60
2019-03-13T14:12:03.070Z,52.30
2019-03-13T14:14:50.963Z,52.50
2019-03-13T14:17:39.283Z,52.30
2019-03-13T14:20:08.051Z,50.20
2019-03-13T14:22:55.956Z,47.60
2019-03-13T14:25:24.557Z,46.50
2019-03-13T14:28:13.050Z,46.60
2019-03-13T14:31:00.994Z,48.00
2019-03-13T14:33:48.927Z,49.00
2019-03-13T14:36:36.853Z,49.50
2019-03-13T14:39:24.844Z,48.80
2019-03-13T14:41:53.447Z,49.20
2019-03-13T14:44:41.377Z,50.00
2019-03-13T14:47:29.277Z,50.70
2019-03-13T14:50:17.336Z,50.80
2019-03-13T14:52:45.917Z,51.10
2019-03-13T14:55:33.957Z,51.40
2019-03-13T14:58:14.344Z,51.30
2019-03-13T15:00:55.319Z,51.20
2019-03-13T15:03:36.520Z,51.60
2019-03-13T15:06:17.277Z,52.00
2019-03-13T15:08:58.067Z,52.60
2019-03-13T15:11:39.078Z,53.00
2019-03-13T15:14:07.682Z,53.30
2019-03-13T15:16:36.265Z,53.60
2019-03-13T15:19:04.899Z,53.70
2019-03-13T15:21:52.817Z,53.60
2019-03-13T15:24:41.003Z,53.50
2019-03-13T15:27:29.184Z,53.50
2019-03-13T15:30:18.211Z,53.60
2019-03-13T15:33:06.126Z,53.70
2019-03-13T15:35:54.287Z,53.70
2019-03-13T15:38:42.212Z,53.30
2019-03-13T15:41:30.163Z,52.90
2019-03-13T15:44:18.097Z,52.60
2019-03-13T15:47:06.047Z,52.50
2019-03-13T15:49:53.973Z,51.30
2019-03-13T15:52:22.677Z,53.20
2019-03-13T15:55:10.884Z,56.00
2019-03-13T15:57:39.775Z,55.70
2019-03-13T16:00:20.660Z,57.00
2019-03-13T16:03:01.684Z,57.30
2019-03-13T16:05:42.612Z,59.30
2019-03-13T16:08:11.708Z,58.20
2019-03-13T16:10:40.294Z,58.80
2019-03-13T16:13:08.897Z,61.90
2019-03-13T16:15:38.063Z,62.70
2019-03-13T16:18:06.619Z,60.80
2019-03-13T16:20:36.068Z,59.00
2019-03-13T16:23:05.346Z,62.50
2019-03-13T16:25:33.927Z,61.00
2019-03-13T16:28:22.110Z,60.60
2019-03-13T16:30:50.977Z,58.80
2019-03-13T16:33:39.147Z,59.60
2019-03-13T16:36:07.820Z,59.30
2019-03-13T16:38:55.848Z,59.60
2019-03-13T16:41:24.415Z,60.20
2019-03-13T16:44:12.667Z,60.60
2019-03-13T16:46:41.263Z,60.60
2019-03-13T16:49:29.308Z,60.70
2019-03-13T16:52:17.206Z,59.80
2019-03-13T16:54:46.169Z,57.90
2019-03-13T16:57:34.075Z,56.70
2019-03-13T17:00:02.917Z,55.90
2019-03-13T17:02:50.835Z,55.50
2019-03-13T17:05:19.540Z,55.20
2019-03-13T17:08:07.716Z,55.00
2019-03-13T17:10:55.695Z,55.00
2019-03-13T17:13:24.836Z,54.80
2019-03-13T17:16:12.886Z,54.70
2019-03-13T17:19:00.763Z,54.60
2019-03-13T17:21:29.367Z,54.50
2019-03-13T17:24:17.285Z,54.60
2019-03-13T17:26:45.999Z,54.50
2019-03-13T17:29:34.182Z,54.60
2019-03-13T17:32:02.775Z,54.60
2019-03-13T17:34:50.704Z,54.60
2019-03-13T17:37:38.631Z,54.50
2019-03-13T17:40:26.568Z,54.30
2019-03-13T17:43:14.468Z,54.40
2019-03-13T17:45:43.071Z,54.40
2019-03-13T17:48:30.984Z,54.50
2019-03-13T17:50:59.545Z,54.50
2019-03-13T17:53:28.140Z,54.50
2019-03-13T17:56:16.064Z,54.30
2019-03-13T17:59:04.087Z,54.30
2019-03-13T18:01:44.735Z,54.20
2019-03-13T18:04:25.731Z,54.30
2019-03-13T18:06:54.331Z,59.50
2019-03-13T18:09:42.269Z,65.80
2019-03-13T18:12:30.175Z,66.70
2019-03-13T18:15:18.114Z,62.00
2019-03-13T18:17:46.707Z,58.90
2019-03-13T18:20:34.643Z,57.30
2019-03-13T18:23:22.566Z,56.60
2019-03-13T18:25:51.204Z,55.90
2019-03-13T18:28:19.800Z,55.60
2019-03-13T18:30:48.386Z,55.40
2019-03-13T18:33:17.023Z,55.20
2019-03-13T18:36:05.224Z,55.10
2019-03-13T18:38:33.825Z,54.70
2019-03-13T18:41:02.843Z,54.70
2019-03-13T18:43:51.031Z,54.70
2019-03-13T18:46:38.956Z,54.40
2019-03-13T18:49:07.827Z,54.40
2019-03-13T18:51:55.752Z,54.30
2019-03-13T18:54:43.940Z,54.20
2019-03-13T18:57:31.874Z,54.10
2019-03-13T19:00:13.019Z,54.00
2019-03-13T19:02:41.592Z,53.80
2019-03-13T19:05:11.031Z,53.70
2019-03-13T19:07:39.664Z,53.60
2019-03-13T19:10:27.816Z,53.70
2019-03-13T19:13:15.816Z,53.80
2019-03-13T19:16:03.939Z,53.80
2019-03-13T19:18:51.874Z,53.80
2019-03-13T19:21:39.803Z,54.60
2019-03-13T19:24:27.824Z,54.20
2019-03-13T19:27:16.006Z,54.30
2019-03-13T19:30:04.416Z,54.50
2019-03-13T19:32:52.330Z,54.60
2019-03-13T19:35:40.291Z,54.60
2019-03-13T19:38:28.203Z,54.50
2019-03-13T19:41:16.792Z,54.60
2019-03-13T19:44:04.726Z,54.80
2019-03-13T19:46:33.707Z,54.80
2019-03-13T19:49:21.880Z,54.90
2019-03-13T19:51:50.557Z,55.00
2019-03-13T19:54:19.139Z,55.10
2019-03-13T19:57:07.045Z,55.20
2019-03-13T19:59:55.026Z,55.10
2019-03-13T20:02:36.620Z,55.20
2019-03-13T20:05:17.792Z,55.20
2019-03-13T20:07:59.156Z,55.40
2019-03-13T20:10:27.754Z,55.40
2019-03-13T20:12:56.595Z,55.50
2019-03-13T20:15:25.282Z,55.40
2019-03-13T20:18:13.196Z,55.40
2019-03-13T20:21:01.369Z,55.40
2019-03-13T20:23:49.539Z,55.40
2019-03-13T20:26:37.711Z,55.50
2019-03-13T20:29:25.651Z,55.50
2019-03-13T20:32:13.586Z,55.70
2019-03-13T20:35:01.524Z,55.70
2019-03-13T20:37:30.655Z,55.90
2019-03-13T20:40:19.027Z,55.80
2019-03-13T20:42:47.741Z,55.80
2019-03-13T20:48:06.304Z,55.90
2019-03-13T20:50:54.243Z,55.90
2019-03-13T20:53:23.287Z,55.90
2019-03-13T20:56:11.232Z,56.00
2019-03-13T20:58:40.112Z,56.00
2019-03-13T21:01:08.731Z,56.10
2019-03-13T21:03:37.327Z,56.10
2019-03-13T21:06:05.939Z,56.10
2019-03-13T21:08:54.443Z,56.10
2019-03-13T21:11:23.117Z,56.10
2019-03-13T21:14:11.261Z,56.10
2019-03-13T21:16:39.879Z,56.10
2019-03-13T21:19:28.067Z,56.20
2019-03-13T21:22:16.085Z,56.20
2019-03-13T21:24:44.927Z,56.20
2019-03-13T21:27:32.852Z,56.20
2019-03-13T21:30:21.452Z,56.20
2019-03-13T21:32:50.836Z,56.00
2019-03-13T21:35:19.655Z,56.10
2019-03-13T21:38:07.748Z,56.20
2019-03-13T21:40:36.692Z,56.10
2019-03-13T21:43:24.641Z,56.10
2019-03-13T21:45:53.203Z,56.10
2019-03-13T21:48:41.391Z,56.30
2019-03-13T21:51:29.309Z,56.20
2019-03-13T21:54:17.319Z,56.20
2019-03-13T21:56:46.208Z,56.40
2019-03-13T21:59:14.811Z,56.40
2019-03-13T22:01:55.188Z,56.40
2019-03-13T22:04:24.628Z,56.50
2019-03-13T22:07:12.838Z,56.50
2019-03-13T22:09:41.431Z,56.30
2019-03-13T22:12:29.457Z,56.60
2019-03-13T22:15:17.436Z,56.60
2019-03-13T22:18:05.407Z,56.70
2019-03-13T22:20:53.343Z,56.60
2019-03-13T22:23:22.749Z,56.60
2019-03-13T22:26:10.671Z,56.50
2019-03-13T22:28:58.768Z,56.50
2019-03-13T22:31:46.694Z,56.50
2019-03-13T22:34:15.762Z,56.60
2019-03-13T22:36:45.915Z,56.70
2019-03-13T22:39:34.406Z,56.80
2019-03-13T22:42:22.364Z,56.70
2019-03-13T22:44:51.052Z,56.70
2019-03-13T22:47:43.034Z,56.80
2019-03-13T22:50:28.938Z,56.80
2019-03-13T22:53:16.839Z,56.60
2019-03-13T22:56:04.777Z,56.60
2019-03-13T22:58:33.387Z,56.60
2019-03-13T23:01:16.289Z,56.80
2019-03-13T23:03:57.041Z,56.60
2019-03-13T23:06:25.689Z,56.50
2019-03-13T23:08:54.255Z,56.70
2019-03-13T23:11:42.213Z,56.60
2019-03-13T23:14:12.535Z,56.70
2019-03-13T23:17:00.795Z,56.70
2019-03-13T23:19:29.487Z,56.70
2019-03-13T23:21:58.087Z,56.70
2019-03-13T23:24:27.117Z,56.60
2019-03-13T23:27:15.103Z,56.60
2019-03-13T23:30:03.149Z,56.70
2019-03-13T23:32:51.067Z,56.70
2019-03-13T23:35:39.222Z,56.70
2019-03-13T23:38:07.951Z,56.70
2019-03-13T23:40:55.879Z,56.70
2019-03-13T23:43:43.912Z,56.70
2019-03-13T23:46:31.831Z,56.90
2019-03-13T23:49:00.515Z,56.90
2019-03-13T23:51:48.434Z,56.80
2019-03-13T23:54:36.387Z,56.70
2019-03-13T23:57:04.950Z,56.80
2019-03-13T23:59:33.764Z,56.80
